sensor_id;sensor_type;location;lat;lon;timestamp;temperature;humidity
25906;DHT22;13713;52.552;13.204;2023-06-24T00:01:00;23.60;75.90
25906;DHT22;13713;52.552;13.204;2023-06-24T00:03:27;23.60;75.90
25906;DHT22;13713;52.552;13.204;2023-06-24T00:05:53;23.60;75.90
25906;DHT22;13713;52.552;13.204;2023-06-24T00:08:23;23.60;75.90
25906;DHT22;13713;52.552;13.204;2023-06-24T00:10:55;23.60;75.90
25906;DHT22;13713;52.552;13.204;2023-06-24T00:13:22;23.60;75.80
25906;DHT22;13713;52.552;13.204;2023-06-24T00:15:49;23.60;75.80
25906;DHT22;13713;52.552;13.204;2023-06-24T00:18:16;23.60;75.90
25906;DHT22;13713;52.552;13.204;2023-06-24T00:20:46;23.60;75.80
25906;DHT22;13713;52.552;13.204;2023-06-24T00:23:17;23.60;75.80
25906;DHT22;13713;52.552;13.204;2023-06-24T00:25:47;23.60;75.80
25906;DHT22;13713;52.552;13.204;2023-06-24T00:28:14;23.60;75.80
25906;DHT22;13713;52.552;13.204;2023-06-24T00:30:46;23.60;75.80
25906;DHT22;13713;52.552;13.204;2023-06-24T00:33:16;23.60;75.80
25906;DHT22;13713;52.552;13.204;2023-06-24T00:35:53;23.60;75.80
25906;DHT22;13713;52.552;13.204;2023-06-24T00:38:23;23.60;75.80
25906;DHT22;13713;52.552;13.204;2023-06-24T00:40:50;23.60;75.80
25906;DHT22;13713;52.552;13.204;2023-06-24T00:43:16;23.60;75.80
25906;DHT22;13713;52.552;13.204;2023-06-24T00:45:46;23.60;75.80
25906;DHT22;13713;52.552;13.204;2023-06-24T00:48:15;23.60;75.80
25906;DHT22;13713;52.552;13.204;2023-06-24T00:50:45;23.60;75.80
25906;DHT22;13713;52.552;13.204;2023-06-24T00:53:12;23.60;75.80
25906;DHT22;13713;52.552;13.204;2023-06-24T00:55:39;23.60;75.80
25906;DHT22;13713;52.552;13.204;2023-06-24T00:58:07;23.60;75.80
25906;DHT22;13713;52.552;13.204;2023-06-24T01:00:35;23.60;75.70
25906;DHT22;13713;52.552;13.204;2023-06-24T01:03:07;23.60;76.50
25906;DHT22;13713;52.552;13.204;2023-06-24T01:05:40;23.60;75.70
25906;DHT22;13713;52.552;13.204;2023-06-24T01:08:16;23.60;75.70
25906;DHT22;13713;52.552;13.204;2023-06-24T01:10:45;23.60;75.70
25906;DHT22;13713;52.552;13.204;2023-06-24T01:13:17;23.60;75.70
25906;DHT22;13713;52.552;13.204;2023-06-24T01:15:44;23.60;75.70
25906;DHT22;13713;52.552;13.204;2023-06-24T01:18:24;23.60;75.70
25906;DHT22;13713;52.552;13.204;2023-06-24T01:21:12;23.60;75.70
25906;DHT22;13713;52.552;13.204;2023-06-24T01:26:51;23.60;75.60
25906;DHT22;13713;52.552;13.204;2023-06-24T01:32:09;23.60;75.60
25906;DHT22;13713;52.552;13.204;2023-06-24T01:34:47;23.60;75.60
25906;DHT22;13713;52.552;13.204;2023-06-24T01:37:28;23.60;75.60
25906;DHT22;13713;52.552;13.204;2023-06-24T01:43:03;23.50;75.50
25906;DHT22;13713;52.552;13.204;2023-06-24T01:45:36;23.60;75.50
25906;DHT22;13713;52.552;13.204;2023-06-24T01:48:14;23.60;75.50
25906;DHT22;13713;52.552;13.204;2023-06-24T01:51:00;23.60;75.50
25906;DHT22;13713;52.552;13.204;2023-06-24T01:53:35;23.60;75.50
25906;DHT22;13713;52.552;13.204;2023-06-24T01:56:03;23.60;75.50
25906;DHT22;13713;52.552;13.204;2023-06-24T01:58:32;23.50;75.40
25906;DHT22;13713;52.552;13.204;2023-06-24T02:01:06;23.60;75.50
25906;DHT22;13713;52.552;13.204;2023-06-24T02:03:34;23.50;75.40
25906;DHT22;13713;52.552;13.204;2023-06-24T02:06:10;23.50;75.40
25906;DHT22;13713;52.552;13.204;2023-06-24T02:08:41;23.50;75.40
25906;DHT22;13713;52.552;13.204;2023-06-24T02:11:12;23.50;75.40
25906;DHT22;13713;52.552;13.204;2023-06-24T02:13:43;23.50;75.40
25906;DHT22;13713;52.552;13.204;2023-06-24T02:16:17;23.50;75.30
25906;DHT22;13713;52.552;13.204;2023-06-24T02:18:48;23.50;75.30
25906;DHT22;13713;52.552;13.204;2023-06-24T02:21:19;23.50;75.30
25906;DHT22;13713;52.552;13.204;2023-06-24T02:23:49;23.50;75.30
25906;DHT22;13713;52.552;13.204;2023-06-24T02:26:19;23.50;75.30
25906;DHT22;13713;52.552;13.204;2023-06-24T02:28:49;23.50;75.30
25906;DHT22;13713;52.552;13.204;2023-06-24T02:31:22;23.50;75.20
25906;DHT22;13713;52.552;13.204;2023-06-24T02:33:52;23.50;75.30
25906;DHT22;13713;52.552;13.204;2023-06-24T02:36:19;23.50;75.20
25906;DHT22;13713;52.552;13.204;2023-06-24T02:38:45;23.50;75.20
25906;DHT22;13713;52.552;13.204;2023-06-24T02:41:21;23.50;75.20
25906;DHT22;13713;52.552;13.204;2023-06-24T02:43:53;23.50;75.10
25906;DHT22;13713;52.552;13.204;2023-06-24T02:46:21;23.50;75.10
25906;DHT22;13713;52.552;13.204;2023-06-24T02:48:53;23.50;75.10
25906;DHT22;13713;52.552;13.204;2023-06-24T02:51:23;23.50;75.10
25906;DHT22;13713;52.552;13.204;2023-06-24T02:53:53;23.50;75.10
25906;DHT22;13713;52.552;13.204;2023-06-24T02:56:37;23.50;75.00
25906;DHT22;13713;52.552;13.204;2023-06-24T02:59:11;23.50;75.00
25906;DHT22;13713;52.552;13.204;2023-06-24T03:01:41;23.50;75.00
25906;DHT22;13713;52.552;13.204;2023-06-24T03:04:14;23.50;75.00
25906;DHT22;13713;52.552;13.204;2023-06-24T03:06:41;23.50;75.00
25906;DHT22;13713;52.552;13.204;2023-06-24T03:09:09;23.50;75.00
25906;DHT22;13713;52.552;13.204;2023-06-24T03:11:43;23.50;74.90
25906;DHT22;13713;52.552;13.204;2023-06-24T03:14:14;23.50;75.00
25906;DHT22;13713;52.552;13.204;2023-06-24T03:16:42;23.50;75.00
25906;DHT22;13713;52.552;13.204;2023-06-24T03:19:19;23.50;74.90
25906;DHT22;13713;52.552;13.204;2023-06-24T03:21:46;23.50;74.90
25906;DHT22;13713;52.552;13.204;2023-06-24T03:24:19;23.50;74.90
25906;DHT22;13713;52.552;13.204;2023-06-24T03:26:52;23.50;74.90
25906;DHT22;13713;52.552;13.204;2023-06-24T03:29:29;23.50;74.80
25906;DHT22;13713;52.552;13.204;2023-06-24T03:32:07;23.50;74.80
25906;DHT22;13713;52.552;13.204;2023-06-24T03:34:34;23.50;74.80
25906;DHT22;13713;52.552;13.204;2023-06-24T03:37:06;23.50;74.80
25906;DHT22;13713;52.552;13.204;2023-06-24T03:39:35;23.50;74.80
25906;DHT22;13713;52.552;13.204;2023-06-24T03:42:02;23.50;74.80
25906;DHT22;13713;52.552;13.204;2023-06-24T03:44:28;23.50;74.70
25906;DHT22;13713;52.552;13.204;2023-06-24T03:47:00;23.50;74.70
25906;DHT22;13713;52.552;13.204;2023-06-24T03:49:29;23.50;74.70
25906;DHT22;13713;52.552;13.204;2023-06-24T03:51:56;23.50;74.70
25906;DHT22;13713;52.552;13.204;2023-06-24T03:54:23;23.50;74.70
25906;DHT22;13713;52.552;13.204;2023-06-24T03:56:49;23.50;74.70
25906;DHT22;13713;52.552;13.204;2023-06-24T03:59:19;23.50;74.70
25906;DHT22;13713;52.552;13.204;2023-06-24T04:01:46;23.50;74.60
25906;DHT22;13713;52.552;13.204;2023-06-24T04:04:13;23.50;74.70
25906;DHT22;13713;52.552;13.204;2023-06-24T04:06:39;23.50;74.50
25906;DHT22;13713;52.552;13.204;2023-06-24T04:09:06;23.50;74.60
25906;DHT22;13713;52.552;13.204;2023-06-24T04:11:38;23.50;74.50
25906;DHT22;13713;52.552;13.204;2023-06-24T04:14:22;23.50;74.50
25906;DHT22;13713;52.552;13.204;2023-06-24T04:16:49;23.50;74.50
25906;DHT22;13713;52.552;13.204;2023-06-24T04:19:18;23.50;74.40
25906;DHT22;13713;52.552;13.204;2023-06-24T04:21:48;23.50;74.40
25906;DHT22;13713;52.552;13.204;2023-06-24T04:24:17;23.50;74.40
25906;DHT22;13713;52.552;13.204;2023-06-24T04:26:47;23.50;74.40
25906;DHT22;13713;52.552;13.204;2023-06-24T04:29:22;23.50;74.40
25906;DHT22;13713;52.552;13.204;2023-06-24T04:31:55;23.50;74.40
25906;DHT22;13713;52.552;13.204;2023-06-24T04:34:22;23.50;74.30
25906;DHT22;13713;52.552;13.204;2023-06-24T04:36:48;23.50;74.30
25906;DHT22;13713;52.552;13.204;2023-06-24T04:39:18;23.50;74.30
25906;DHT22;13713;52.552;13.204;2023-06-24T04:41:50;23.40;74.20
25906;DHT22;13713;52.552;13.204;2023-06-24T04:44:17;23.40;74.20
25906;DHT22;13713;52.552;13.204;2023-06-24T04:46:46;23.50;74.20
25906;DHT22;13713;52.552;13.204;2023-06-24T04:49:16;23.40;74.10
25906;DHT22;13713;52.552;13.204;2023-06-24T04:51:48;23.50;74.20
25906;DHT22;13713;52.552;13.204;2023-06-24T04:54:19;23.40;74.10
25906;DHT22;13713;52.552;13.204;2023-06-24T04:56:47;23.50;74.10
25906;DHT22;13713;52.552;13.204;2023-06-24T04:59:16;23.50;74.10
25906;DHT22;13713;52.552;13.204;2023-06-24T05:01:42;23.40;74.00
25906;DHT22;13713;52.552;13.204;2023-06-24T05:04:09;23.50;74.10
25906;DHT22;13713;52.552;13.204;2023-06-24T05:06:39;23.40;73.90
25906;DHT22;13713;52.552;13.204;2023-06-24T05:09:08;23.40;73.90
25906;DHT22;13713;52.552;13.204;2023-06-24T05:11:36;23.50;74.00
25906;DHT22;13713;52.552;13.204;2023-06-24T05:14:03;23.50;73.90
25906;DHT22;13713;52.552;13.204;2023-06-24T05:16:33;23.50;73.90
25906;DHT22;13713;52.552;13.204;2023-06-24T05:18:59;23.50;73.90
25906;DHT22;13713;52.552;13.204;2023-06-24T05:21:26;23.40;73.80
25906;DHT22;13713;52.552;13.204;2023-06-24T05:23:53;23.50;73.80
25906;DHT22;13713;52.552;13.204;2023-06-24T05:26:19;23.50;73.80
25906;DHT22;13713;52.552;13.204;2023-06-24T05:28:46;23.50;73.80
25906;DHT22;13713;52.552;13.204;2023-06-24T05:31:13;23.50;73.80
25906;DHT22;13713;52.552;13.204;2023-06-24T05:33:39;23.50;73.80
25906;DHT22;13713;52.552;13.204;2023-06-24T05:36:09;23.50;73.80
25906;DHT22;13713;52.552;13.204;2023-06-24T05:38:36;23.50;73.70
25906;DHT22;13713;52.552;13.204;2023-06-24T05:41:05;23.50;73.70
25906;DHT22;13713;52.552;13.204;2023-06-24T05:43:35;23.50;73.60
25906;DHT22;13713;52.552;13.204;2023-06-24T05:46:01;23.50;73.60
25906;DHT22;13713;52.552;13.204;2023-06-24T05:48:31;23.50;73.60
25906;DHT22;13713;52.552;13.204;2023-06-24T05:50:57;23.50;73.50
25906;DHT22;13713;52.552;13.204;2023-06-24T05:53:24;23.50;73.50
25906;DHT22;13713;52.552;13.204;2023-06-24T05:55:51;23.50;73.40
25906;DHT22;13713;52.552;13.204;2023-06-24T05:58:31;23.50;73.40
25906;DHT22;13713;52.552;13.204;2023-06-24T06:01:13;23.50;73.40
25906;DHT22;13713;52.552;13.204;2023-06-24T06:03:41;23.60;73.40
25906;DHT22;13713;52.552;13.204;2023-06-24T06:06:11;23.60;73.40
25906;DHT22;13713;52.552;13.204;2023-06-24T06:08:41;23.60;73.30
25906;DHT22;13713;52.552;13.204;2023-06-24T06:11:10;23.60;73.40
25906;DHT22;13713;52.552;13.204;2023-06-24T06:13:40;23.60;73.30
25906;DHT22;13713;52.552;13.204;2023-06-24T06:16:06;23.60;73.30
25906;DHT22;13713;52.552;13.204;2023-06-24T06:18:39;23.60;73.20
25906;DHT22;13713;52.552;13.204;2023-06-24T06:21:08;23.60;73.20
25906;DHT22;13713;52.552;13.204;2023-06-24T06:23:35;23.60;73.20
25906;DHT22;13713;52.552;13.204;2023-06-24T06:26:05;23.60;73.20
25906;DHT22;13713;52.552;13.204;2023-06-24T06:28:35;23.60;73.10
25906;DHT22;13713;52.552;13.204;2023-06-24T06:31:04;23.60;73.10
25906;DHT22;13713;52.552;13.204;2023-06-24T06:33:30;23.60;73.10
25906;DHT22;13713;52.552;13.204;2023-06-24T06:36:01;23.70;73.10
25906;DHT22;13713;52.552;13.204;2023-06-24T06:38:34;23.70;73.10
25906;DHT22;13713;52.552;13.204;2023-06-24T06:41:05;23.70;73.00
25906;DHT22;13713;52.552;13.204;2023-06-24T06:43:38;23.70;72.90
25906;DHT22;13713;52.552;13.204;2023-06-24T06:46:11;23.70;72.90
25906;DHT22;13713;52.552;13.204;2023-06-24T06:48:40;23.70;72.90
25906;DHT22;13713;52.552;13.204;2023-06-24T06:51:09;23.70;72.90
25906;DHT22;13713;52.552;13.204;2023-06-24T06:53:35;23.70;72.90
25906;DHT22;13713;52.552;13.204;2023-06-24T06:56:13;23.70;72.80
25906;DHT22;13713;52.552;13.204;2023-06-24T06:58:42;23.70;72.70
25906;DHT22;13713;52.552;13.204;2023-06-24T07:01:09;23.70;72.70
25906;DHT22;13713;52.552;13.204;2023-06-24T07:03:36;23.70;72.80
25906;DHT22;13713;52.552;13.204;2023-06-24T07:06:03;23.70;72.70
25906;DHT22;13713;52.552;13.204;2023-06-24T07:08:32;23.70;72.80
25906;DHT22;13713;52.552;13.204;2023-06-24T07:10:58;23.70;72.70
25906;DHT22;13713;52.552;13.204;2023-06-24T07:13:34;23.70;72.60
25906;DHT22;13713;52.552;13.204;2023-06-24T07:16:01;23.70;72.60
25906;DHT22;13713;52.552;13.204;2023-06-24T07:18:30;23.80;72.60
25906;DHT22;13713;52.552;13.204;2023-06-24T07:21:00;23.70;72.60
25906;DHT22;13713;52.552;13.204;2023-06-24T07:23:28;23.80;72.60
25906;DHT22;13713;52.552;13.204;2023-06-24T07:25:55;23.80;72.60
25906;DHT22;13713;52.552;13.204;2023-06-24T07:28:21;23.80;72.50
25906;DHT22;13713;52.552;13.204;2023-06-24T07:30:50;23.80;72.50
25906;DHT22;13713;52.552;13.204;2023-06-24T07:33:17;23.80;72.50
25906;DHT22;13713;52.552;13.204;2023-06-24T07:35:43;23.80;72.50
25906;DHT22;13713;52.552;13.204;2023-06-24T07:38:13;23.80;72.50
25906;DHT22;13713;52.552;13.204;2023-06-24T07:40:40;23.80;72.40
25906;DHT22;13713;52.552;13.204;2023-06-24T07:43:07;23.80;72.30
25906;DHT22;13713;52.552;13.204;2023-06-24T07:45:34;23.80;72.30
25906;DHT22;13713;52.552;13.204;2023-06-24T07:48:00;23.80;72.30
25906;DHT22;13713;52.552;13.204;2023-06-24T07:50:31;23.80;72.30
25906;DHT22;13713;52.552;13.204;2023-06-24T07:53:03;23.80;72.30
25906;DHT22;13713;52.552;13.204;2023-06-24T07:55:32;23.80;72.30
25906;DHT22;13713;52.552;13.204;2023-06-24T07:57:59;23.80;72.30
25906;DHT22;13713;52.552;13.204;2023-06-24T08:00:28;23.80;72.20
25906;DHT22;13713;52.552;13.204;2023-06-24T08:02:55;23.80;72.20
25906;DHT22;13713;52.552;13.204;2023-06-24T08:05:27;23.80;72.10
25906;DHT22;13713;52.552;13.204;2023-06-24T08:07:54;23.80;72.10
25906;DHT22;13713;52.552;13.204;2023-06-24T08:10:20;23.80;72.10
25906;DHT22;13713;52.552;13.204;2023-06-24T08:12:47;23.80;72.10
25906;DHT22;13713;52.552;13.204;2023-06-24T08:15:13;23.80;72.00
25906;DHT22;13713;52.552;13.204;2023-06-24T08:17:40;23.90;72.10
25906;DHT22;13713;52.552;13.204;2023-06-24T08:20:10;23.80;72.00
25906;DHT22;13713;52.552;13.204;2023-06-24T08:22:37;23.80;72.00
25906;DHT22;13713;52.552;13.204;2023-06-24T08:25:04;23.80;72.00
25906;DHT22;13713;52.552;13.204;2023-06-24T08:27:30;23.90;72.00
25906;DHT22;13713;52.552;13.204;2023-06-24T08:29:57;23.80;71.90
25906;DHT22;13713;52.552;13.204;2023-06-24T08:32:23;23.80;71.90
25906;DHT22;13713;52.552;13.204;2023-06-24T08:34:52;23.90;71.90
25906;DHT22;13713;52.552;13.204;2023-06-24T08:37:19;23.90;71.90
25906;DHT22;13713;52.552;13.204;2023-06-24T08:39:51;23.80;71.70
25906;DHT22;13713;52.552;13.204;2023-06-24T08:42:18;23.90;71.80
25906;DHT22;13713;52.552;13.204;2023-06-24T08:44:44;23.80;71.70
25906;DHT22;13713;52.552;13.204;2023-06-24T08:47:12;23.90;71.70
25906;DHT22;13713;52.552;13.204;2023-06-24T08:50:04;23.80;71.60
25906;DHT22;13713;52.552;13.204;2023-06-24T08:52:35;23.90;71.70
25906;DHT22;13713;52.552;13.204;2023-06-24T08:55:22;23.80;71.60
25906;DHT22;13713;52.552;13.204;2023-06-24T08:57:51;23.80;71.60
25906;DHT22;13713;52.552;13.204;2023-06-24T09:00:18;23.90;71.60
25906;DHT22;13713;52.552;13.204;2023-06-24T09:02:48;23.90;71.60
25906;DHT22;13713;52.552;13.204;2023-06-24T09:05:17;23.90;71.50
25906;DHT22;13713;52.552;13.204;2023-06-24T09:07:43;23.90;71.50
25906;DHT22;13713;52.552;13.204;2023-06-24T09:10:10;23.90;71.50
25906;DHT22;13713;52.552;13.204;2023-06-24T09:12:39;23.80;71.40
25906;DHT22;13713;52.552;13.204;2023-06-24T09:15:14;23.90;71.40
25906;DHT22;13713;52.552;13.204;2023-06-24T09:17:48;23.90;71.40
25906;DHT22;13713;52.552;13.204;2023-06-24T09:20:19;23.90;71.40
25906;DHT22;13713;52.552;13.204;2023-06-24T09:22:48;23.90;71.30
25906;DHT22;13713;52.552;13.204;2023-06-24T09:25:21;23.90;71.30
25906;DHT22;13713;52.552;13.204;2023-06-24T09:27:51;23.90;71.30
25906;DHT22;13713;52.552;13.204;2023-06-24T09:30:23;23.90;71.20
25906;DHT22;13713;52.552;13.204;2023-06-24T09:32:59;23.90;71.20
25906;DHT22;13713;52.552;13.204;2023-06-24T09:35:26;23.90;71.20
25906;DHT22;13713;52.552;13.204;2023-06-24T09:37:55;23.90;71.10
25906;DHT22;13713;52.552;13.204;2023-06-24T09:40:23;23.90;71.10
25906;DHT22;13713;52.552;13.204;2023-06-24T09:42:54;23.90;71.10
25906;DHT22;13713;52.552;13.204;2023-06-24T09:45:28;23.90;71.10
25906;DHT22;13713;52.552;13.204;2023-06-24T09:48:01;23.90;71.10
25906;DHT22;13713;52.552;13.204;2023-06-24T09:50:35;23.90;71.10
25906;DHT22;13713;52.552;13.204;2023-06-24T09:53:03;23.90;71.10
25906;DHT22;13713;52.552;13.204;2023-06-24T09:55:36;23.90;71.00
25906;DHT22;13713;52.552;13.204;2023-06-24T09:58:11;23.90;71.00
25906;DHT22;13713;52.552;13.204;2023-06-24T10:00:40;23.90;70.90
25906;DHT22;13713;52.552;13.204;2023-06-24T10:03:10;23.90;70.90
25906;DHT22;13713;52.552;13.204;2023-06-24T10:05:39;23.90;70.90
25906;DHT22;13713;52.552;13.204;2023-06-24T10:08:07;23.90;71.00
25906;DHT22;13713;52.552;13.204;2023-06-24T10:10:49;23.90;70.90
25906;DHT22;13713;52.552;13.204;2023-06-24T10:13:19;23.90;70.90
25906;DHT22;13713;52.552;13.204;2023-06-24T10:15:46;23.90;70.80
25906;DHT22;13713;52.552;13.204;2023-06-24T10:18:32;23.90;70.80
25906;DHT22;13713;52.552;13.204;2023-06-24T10:21:08;23.90;70.80
25906;DHT22;13713;52.552;13.204;2023-06-24T10:23:53;23.90;70.80
25906;DHT22;13713;52.552;13.204;2023-06-24T10:26:25;23.90;70.80
25906;DHT22;13713;52.552;13.204;2023-06-24T10:29:13;23.90;70.70
25906;DHT22;13713;52.552;13.204;2023-06-24T10:31:52;23.90;70.70
25906;DHT22;13713;52.552;13.204;2023-06-24T10:36:56;23.90;70.70
25906;DHT22;13713;52.552;13.204;2023-06-24T10:42:44;23.90;70.70
25906;DHT22;13713;52.552;13.204;2023-06-24T10:45:22;23.90;70.70
25906;DHT22;13713;52.552;13.204;2023-06-24T10:47:49;23.90;70.60
25906;DHT22;13713;52.552;13.204;2023-06-24T10:50:20;23.90;70.50
25906;DHT22;13713;52.552;13.204;2023-06-24T10:52:48;23.90;70.50
25906;DHT22;13713;52.552;13.204;2023-06-24T10:55:17;23.90;70.50
25906;DHT22;13713;52.552;13.204;2023-06-24T10:57:47;23.90;70.50
25906;DHT22;13713;52.552;13.204;2023-06-24T11:00:17;23.90;70.50
25906;DHT22;13713;52.552;13.204;2023-06-24T11:02:44;23.90;70.50
25906;DHT22;13713;52.552;13.204;2023-06-24T11:05:15;23.90;70.50
25906;DHT22;13713;52.552;13.204;2023-06-24T11:07:50;23.90;70.50
25906;DHT22;13713;52.552;13.204;2023-06-24T11:10:22;23.90;71.20
25906;DHT22;13713;52.552;13.204;2023-06-24T11:12:48;23.90;70.40
25906;DHT22;13713;52.552;13.204;2023-06-24T11:15:15;23.90;70.40
25906;DHT22;13713;52.552;13.204;2023-06-24T11:17:42;23.90;70.50
25906;DHT22;13713;52.552;13.204;2023-06-24T11:20:15;23.90;70.40
25906;DHT22;13713;52.552;13.204;2023-06-24T11:22:53;23.90;70.40
25906;DHT22;13713;52.552;13.204;2023-06-24T11:25:23;23.90;70.40
25906;DHT22;13713;52.552;13.204;2023-06-24T11:27:55;23.90;70.30
25906;DHT22;13713;52.552;13.204;2023-06-24T11:30:35;23.90;70.30
25906;DHT22;13713;52.552;13.204;2023-06-24T11:33:02;23.90;70.30
25906;DHT22;13713;52.552;13.204;2023-06-24T11:35:29;23.90;70.30
25906;DHT22;13713;52.552;13.204;2023-06-24T11:38:02;23.90;70.20
25906;DHT22;13713;52.552;13.204;2023-06-24T11:40:31;23.90;70.30
25906;DHT22;13713;52.552;13.204;2023-06-24T11:43:00;23.90;70.20
25906;DHT22;13713;52.552;13.204;2023-06-24T11:45:31;23.90;70.20
25906;DHT22;13713;52.552;13.204;2023-06-24T11:48:02;23.90;70.20
25906;DHT22;13713;52.552;13.204;2023-06-24T11:50:31;23.90;70.20
25906;DHT22;13713;52.552;13.204;2023-06-24T11:52:57;23.90;70.20
25906;DHT22;13713;52.552;13.204;2023-06-24T11:55:28;23.90;70.20
25906;DHT22;13713;52.552;13.204;2023-06-24T11:58:04;23.90;70.20
25906;DHT22;13713;52.552;13.204;2023-06-24T12:00:39;23.90;70.20
25906;DHT22;13713;52.552;13.204;2023-06-24T12:03:08;23.90;70.10
25906;DHT22;13713;52.552;13.204;2023-06-24T12:05:36;23.90;70.10
25906;DHT22;13713;52.552;13.204;2023-06-24T12:08:05;23.90;70.10
25906;DHT22;13713;52.552;13.204;2023-06-24T12:10:36;23.90;70.10
25906;DHT22;13713;52.552;13.204;2023-06-24T12:13:08;23.90;70.10
25906;DHT22;13713;52.552;13.204;2023-06-24T12:15:35;23.90;70.10
25906;DHT22;13713;52.552;13.204;2023-06-24T12:18:07;23.90;70.10
25906;DHT22;13713;52.552;13.204;2023-06-24T12:20:36;23.90;70.10
25906;DHT22;13713;52.552;13.204;2023-06-24T12:23:03;23.90;70.10
25906;DHT22;13713;52.552;13.204;2023-06-24T12:25:30;23.90;70.10
25906;DHT22;13713;52.552;13.204;2023-06-24T12:27:56;23.90;70.10
25906;DHT22;13713;52.552;13.204;2023-06-24T12:30:25;23.90;70.00
25906;DHT22;13713;52.552;13.204;2023-06-24T12:32:52;23.90;70.00
25906;DHT22;13713;52.552;13.204;2023-06-24T12:35:18;23.90;70.00
25906;DHT22;13713;52.552;13.204;2023-06-24T12:37:56;23.90;70.00
25906;DHT22;13713;52.552;13.204;2023-06-24T12:40:29;23.90;70.00
25906;DHT22;13713;52.552;13.204;2023-06-24T12:42:56;23.90;70.00
25906;DHT22;13713;52.552;13.204;2023-06-24T12:45:23;23.90;70.00
25906;DHT22;13713;52.552;13.204;2023-06-24T12:47:50;23.90;70.00
25906;DHT22;13713;52.552;13.204;2023-06-24T12:50:17;23.90;70.00
25906;DHT22;13713;52.552;13.204;2023-06-24T12:52:44;23.90;70.00
25906;DHT22;13713;52.552;13.204;2023-06-24T12:55:13;23.90;70.00
25906;DHT22;13713;52.552;13.204;2023-06-24T12:57:42;23.90;70.00
25906;DHT22;13713;52.552;13.204;2023-06-24T13:00:18;23.90;70.00
25906;DHT22;13713;52.552;13.204;2023-06-24T13:02:53;23.90;70.00
25906;DHT22;13713;52.552;13.204;2023-06-24T13:05:28;23.90;70.00
25906;DHT22;13713;52.552;13.204;2023-06-24T13:07:55;23.90;69.90
25906;DHT22;13713;52.552;13.204;2023-06-24T13:10:21;23.90;69.90
25906;DHT22;13713;52.552;13.204;2023-06-24T13:12:48;23.90;69.90
25906;DHT22;13713;52.552;13.204;2023-06-24T13:15:15;23.90;69.90
25906;DHT22;13713;52.552;13.204;2023-06-24T13:17:42;23.90;69.90
25906;DHT22;13713;52.552;13.204;2023-06-24T13:20:11;23.90;69.90
25906;DHT22;13713;52.552;13.204;2023-06-24T13:22:38;23.90;69.90
25906;DHT22;13713;52.552;13.204;2023-06-24T13:25:05;23.90;69.90
25906;DHT22;13713;52.552;13.204;2023-06-24T13:27:35;23.90;69.90
25906;DHT22;13713;52.552;13.204;2023-06-24T13:30:02;23.90;69.80
25906;DHT22;13713;52.552;13.204;2023-06-24T13:32:33;23.90;69.90
25906;DHT22;13713;52.552;13.204;2023-06-24T13:35:09;23.90;69.90
25906;DHT22;13713;52.552;13.204;2023-06-24T13:37:38;23.90;69.80
25906;DHT22;13713;52.552;13.204;2023-06-24T13:40:08;23.90;69.80
25906;DHT22;13713;52.552;13.204;2023-06-24T13:42:37;23.90;69.80
25906;DHT22;13713;52.552;13.204;2023-06-24T13:45:07;23.90;69.80
25906;DHT22;13713;52.552;13.204;2023-06-24T13:47:41;23.90;69.80
25906;DHT22;13713;52.552;13.204;2023-06-24T13:50:11;23.90;69.80
25906;DHT22;13713;52.552;13.204;2023-06-24T13:52:38;23.90;69.80
25906;DHT22;13713;52.552;13.204;2023-06-24T13:55:05;23.90;69.70
25906;DHT22;13713;52.552;13.204;2023-06-24T13:57:33;23.90;69.80
25906;DHT22;13713;52.552;13.204;2023-06-24T14:00:00;23.90;69.80
25906;DHT22;13713;52.552;13.204;2023-06-24T14:02:26;23.90;69.80
25906;DHT22;13713;52.552;13.204;2023-06-24T14:04:59;23.90;70.50
25906;DHT22;13713;52.552;13.204;2023-06-24T14:07:28;23.90;69.70
25906;DHT22;13713;52.552;13.204;2023-06-24T14:09:57;23.90;69.70
25906;DHT22;13713;52.552;13.204;2023-06-24T14:12:24;23.90;69.70
25906;DHT22;13713;52.552;13.204;2023-06-24T14:14:54;23.90;69.70
25906;DHT22;13713;52.552;13.204;2023-06-24T14:17:20;23.90;69.70
25906;DHT22;13713;52.552;13.204;2023-06-24T14:19:47;23.90;69.70
25906;DHT22;13713;52.552;13.204;2023-06-24T14:22:26;23.90;69.70
25906;DHT22;13713;52.552;13.204;2023-06-24T14:25:00;23.90;69.60
25906;DHT22;13713;52.552;13.204;2023-06-24T14:27:39;23.90;69.60
25906;DHT22;13713;52.552;13.204;2023-06-24T14:30:45;23.90;69.60
25906;DHT22;13713;52.552;13.204;2023-06-24T14:33:17;23.90;69.60
25906;DHT22;13713;52.552;13.204;2023-06-24T14:35:44;23.90;69.60
25906;DHT22;13713;52.552;13.204;2023-06-24T14:38:11;23.90;69.60
25906;DHT22;13713;52.552;13.204;2023-06-24T14:40:41;23.90;69.60
25906;DHT22;13713;52.552;13.204;2023-06-24T14:43:10;23.90;69.60
25906;DHT22;13713;52.552;13.204;2023-06-24T14:45:37;23.90;69.60
25906;DHT22;13713;52.552;13.204;2023-06-24T14:48:04;23.90;69.50
25906;DHT22;13713;52.552;13.204;2023-06-24T14:50:31;23.90;69.50
25906;DHT22;13713;52.552;13.204;2023-06-24T14:53:00;23.90;69.60
25906;DHT22;13713;52.552;13.204;2023-06-24T14:55:29;23.90;69.50
25906;DHT22;13713;52.552;13.204;2023-06-24T14:57:55;23.90;69.50
25906;DHT22;13713;52.552;13.204;2023-06-24T15:00:22;23.90;69.50
25906;DHT22;13713;52.552;13.204;2023-06-24T15:02:48;23.90;69.50
25906;DHT22;13713;52.552;13.204;2023-06-24T15:05:15;23.90;69.50
25906;DHT22;13713;52.552;13.204;2023-06-24T15:07:44;23.90;69.40
25906;DHT22;13713;52.552;13.204;2023-06-24T15:10:11;23.90;69.40
25906;DHT22;13713;52.552;13.204;2023-06-24T15:12:40;23.90;69.40
25906;DHT22;13713;52.552;13.204;2023-06-24T15:15:12;23.90;69.50
25906;DHT22;13713;52.552;13.204;2023-06-24T15:17:43;23.80;69.40
25906;DHT22;13713;52.552;13.204;2023-06-24T15:20:14;23.90;69.40
25906;DHT22;13713;52.552;13.204;2023-06-24T15:22:42;23.90;69.40
25906;DHT22;13713;52.552;13.204;2023-06-24T15:25:11;23.90;69.40
25906;DHT22;13713;52.552;13.204;2023-06-24T15:27:42;23.90;69.40
25906;DHT22;13713;52.552;13.204;2023-06-24T15:30:12;23.90;69.40
25906;DHT22;13713;52.552;13.204;2023-06-24T15:32:38;23.90;69.40
25906;DHT22;13713;52.552;13.204;2023-06-24T15:35:08;23.90;69.40
25906;DHT22;13713;52.552;13.204;2023-06-24T15:37:35;23.90;69.40
25906;DHT22;13713;52.552;13.204;2023-06-24T15:40:04;23.90;69.30
25906;DHT22;13713;52.552;13.204;2023-06-24T15:42:34;23.90;69.30
25906;DHT22;13713;52.552;13.204;2023-06-24T15:45:04;23.80;69.20
25906;DHT22;13713;52.552;13.204;2023-06-24T15:47:36;23.90;69.30